createdAt,value
2019-04-23T00:03:58.412Z,98411.17
2019-04-23T00:09:02.825Z,98406.83
2019-04-23T00:13:58.139Z,98405.99
2019-04-23T00:18:59.354Z,98400.27
2019-04-23T00:24:10.327Z,98400.79
2019-04-23T00:29:11.923Z,98392.35
2019-04-23T00:34:16.590Z,98387.45
2019-04-23T00:39:23.686Z,98373.84
2019-04-23T00:44:32.504Z,98372.49
2019-04-23T00:49:32.532Z,98370.30
2019-04-23T00:54:32.670Z,98363.22
2019-04-23T00:59:52.205Z,98368.64
2019-04-23T01:04:47.704Z,98363.47
2019-04-23T01:09:54.494Z,98353.98
2019-04-23T01:14:55.411Z,98343.67
2019-04-23T01:20:01.708Z,98346.08
2019-04-23T01:24:50.809Z,98340.07
2019-04-23T01:30:38.831Z,98337.64
2019-04-23T01:35:29.077Z,98330.34
2019-04-23T01:40:33.008Z,98326.06
2019-04-23T01:45:30.719Z,98323.13
2019-04-23T01:55:46.535Z,98306.05
2019-04-23T02:00:52.882Z,98305.22
2019-04-23T02:11:02.994Z,98292.94
2019-04-23T02:16:06.699Z,98296.20
2019-04-23T02:21:16.943Z,98290.69
2019-04-23T02:26:30.553Z,98286.63
2019-04-23T02:36:40.513Z,98273.02
2019-04-23T02:46:53.951Z,98262.49
2019-04-23T03:02:17.551Z,98249.91
2019-04-23T03:07:16.152Z,98238.27
2019-04-23T03:12:18.529Z,98237.96
2019-04-23T03:17:37.145Z,98230.94
2019-04-23T03:27:44.061Z,98230.14
2019-04-23T03:38:06.779Z,98221.09
2019-04-23T03:43:06.391Z,98218.64
2019-04-23T03:48:16.813Z,98214.58
2019-04-23T03:53:14.070Z,98209.68
2019-04-23T03:58:33.494Z,98203.95
2019-04-23T04:08:25.976Z,98192.59
2019-04-23T04:18:54.255Z,98192.81
2019-04-23T04:28:51.425Z,98194.42
2019-04-23T04:34:11.225Z,98189.83
2019-04-23T04:44:23.672Z,98174.27
2019-04-23T04:54:14.067Z,98177.34
2019-04-23T04:59:17.690Z,98171.87
2019-04-23T05:04:33.137Z,98172.14
2019-04-23T05:24:39.935Z,98160.73
2019-04-23T05:29:54.305Z,98156.19
2019-04-23T05:34:55.784Z,98149.95
2019-04-23T05:40:08.685Z,98147.48
2019-04-23T05:45:08.304Z,98138.70
2019-04-23T05:55:15.331Z,98132.37
2019-04-23T06:00:26.229Z,98136.68
2019-04-23T06:05:25.031Z,98130.66
2019-04-23T06:10:34.039Z,98130.96
2019-04-23T06:15:32.151Z,98131.27
2019-04-23T06:20:45.066Z,98125.02
2019-04-23T06:25:57.723Z,98129.02
2019-04-23T06:30:54.413Z,98120.84
2019-04-23T06:36:03.437Z,98116.09
2019-04-23T06:41:00.815Z,98106.39
2019-04-23T06:46:05.426Z,98099.45
2019-04-23T06:51:12.807Z,98094.09
2019-04-23T06:56:19.166Z,98076.73
2019-04-23T07:01:17.705Z,98070.23
2019-04-23T07:16:32.915Z,98068.89
2019-04-23T07:21:33.553Z,98061.89
2019-04-23T07:26:42.053Z,98062.77
2019-04-23T07:31:53.914Z,98062.07
2019-04-23T07:36:55.090Z,98053.98
2019-04-23T07:42:09.346Z,98052.19
2019-04-23T07:47:27.595Z,98036.80
2019-04-23T07:52:23.946Z,98039.45
2019-04-23T08:02:30.176Z,98036.33
2019-04-23T08:07:37.226Z,98028.31
2019-04-23T08:12:40.553Z,98020.13
2019-04-23T08:17:43.450Z,98018.89
2019-04-23T08:22:56.857Z,98016.66
2019-04-23T08:27:57.489Z,98020.50
2019-04-23T08:33:04.269Z,98015.52
2019-04-23T08:38:24.617Z,98008.86
2019-04-23T08:43:29.594Z,98003.98
2019-04-23T08:48:41.662Z,98000.23
2019-04-23T08:53:37.750Z,97986.61
2019-04-23T09:08:45.817Z,97996.64
2019-04-23T09:18:53.063Z,97973.99
2019-04-23T09:23:56.840Z,97980.17
2019-04-23T09:29:10.079Z,97962.67
2019-04-23T09:34:11.287Z,97966.73
2019-04-23T09:39:20.541Z,97968.32
2019-04-23T09:44:55.933Z,97972.05
2019-04-23T09:49:47.320Z,97971.23
2019-04-23T09:54:58.633Z,97988.03
2019-04-23T09:59:58.131Z,97983.66
2019-04-23T10:04:51.879Z,97980.60
2019-04-23T10:09:42.390Z,97981.13
2019-04-23T10:14:56.464Z,97966.86
2019-04-23T10:19:50.959Z,97969.98
2019-04-23T10:24:55.306Z,97959.63
2019-04-23T10:29:59.612Z,97965.95
2019-04-23T10:35:14.678Z,97956.01
2019-04-23T10:40:15.416Z,97956.19
2019-04-23T10:45:35.176Z,97949.53
2019-04-23T10:56:02.802Z,97929.21
2019-04-23T11:01:19.367Z,97937.19
2019-04-23T11:06:17.649Z,97940.39
2019-04-23T11:11:25.041Z,97929.88
2019-04-23T11:16:44.831Z,97922.38
2019-04-23T11:21:33.925Z,97906.88
2019-04-23T11:26:37.035Z,97890.66
2019-04-23T11:31:42.966Z,97884.14
2019-04-23T11:41:51.722Z,97910.53
2019-04-23T11:47:09.530Z,97906.13
2019-04-23T11:52:08.313Z,97931.88
2019-04-23T11:57:21.569Z,97910.98
2019-04-23T12:02:40.090Z,97902.48
2019-04-23T12:07:50.909Z,97899.34
2019-04-23T12:12:53.426Z,97896.98
2019-04-23T12:18:05.349Z,97916.06
2019-04-23T12:28:13.601Z,97918.06
2019-04-23T12:33:30.138Z,97929.96
2019-04-23T12:38:23.925Z,97942.94
2019-04-23T12:53:37.749Z,97890.20
2019-04-23T12:58:33.922Z,97900.74
2019-04-23T13:03:49.187Z,97888.73
2019-04-23T13:08:54.312Z,97900.67
2019-04-23T13:14:00.838Z,97892.37
2019-04-23T13:19:15.070Z,97906.89
2019-04-23T13:24:11.384Z,97910.33
2019-04-23T13:29:19.521Z,97899.78
2019-04-23T13:34:25.348Z,97899.34
2019-04-23T13:39:24.443Z,97893.06
2019-04-23T13:44:33.120Z,97891.86
2019-04-23T13:49:37.423Z,97896.98
2019-04-23T14:10:24.520Z,97896.79
2019-04-23T14:15:36.943Z,97883.58
2019-04-23T14:20:27.976Z,97866.29
2019-04-23T14:25:52.086Z,97878.98
2019-04-23T14:30:46.572Z,97868.84
2019-04-23T14:35:45.448Z,97859.62
2019-04-23T14:46:27.098Z,97858.27
2019-04-23T14:51:18.290Z,97876.16
2019-04-23T14:56:17.316Z,97870.73
2019-04-23T15:11:44.145Z,97875.55
2019-04-23T15:16:44.608Z,97891.26
2019-04-23T15:31:59.294Z,97891.89
2019-04-23T15:37:00.853Z,97892.08
2019-04-23T15:47:04.562Z,97911.80
2019-04-23T15:52:10.754Z,97908.16
2019-04-23T15:57:07.153Z,97889.52
2019-04-23T16:01:48.314Z,97904.16
2019-04-23T16:06:51.950Z,97892.16
2019-04-23T16:12:17.332Z,97900.28
2019-04-23T16:17:32.678Z,97903.72
2019-04-23T16:22:32.114Z,97898.52
2019-04-23T16:27:36.628Z,97900.67
2019-04-23T16:38:01.705Z,97906.91
2019-04-23T16:43:07.423Z,97898.52
2019-04-23T16:48:06.578Z,97905.78
2019-04-23T16:53:22.320Z,97885.76
2019-04-23T16:58:23.239Z,97894.69
2019-04-23T17:08:45.351Z,97883.64
2019-04-23T17:13:34.444Z,97900.88
2019-04-23T17:18:31.427Z,97886.16
2019-04-23T17:28:59.749Z,97885.66
2019-04-23T17:33:54.547Z,97881.80
2019-04-23T17:39:05.407Z,97880.17
2019-04-23T17:44:18.082Z,97893.77
2019-04-23T17:49:15.275Z,97881.50
2019-04-23T17:59:27.870Z,97884.08
2019-04-23T18:04:34.791Z,97889.41
2019-04-23T18:09:37.865Z,97907.47
2019-04-23T18:14:42.204Z,97900.11
2019-04-23T18:19:56.524Z,97910.27
2019-04-23T18:30:20.723Z,97897.41
2019-04-23T18:35:28.003Z,97911.36
2019-04-23T18:40:40.360Z,97904.48
2019-04-23T18:45:45.336Z,97918.23
2019-04-23T18:56:00.336Z,97923.95
2019-04-23T19:01:14.065Z,97907.33
2019-04-23T19:06:21.878Z,97924.56
2019-04-23T19:11:46.119Z,97923.98
2019-04-23T19:16:53.181Z,97925.88
2019-04-23T19:42:09.929Z,97932.14
2019-04-23T19:47:33.162Z,97930.19
2019-04-23T19:52:46.803Z,97936.40
2019-04-23T19:57:34.000Z,97939.64
2019-04-23T20:02:48.133Z,97939.30
2019-04-23T20:07:50.880Z,97939.45
2019-04-23T20:12:59.023Z,97946.68
2019-04-23T20:17:48.811Z,97953.64
2019-04-23T20:22:58.270Z,97945.77
2019-04-23T20:28:17.279Z,97950.06
2019-04-23T20:38:40.285Z,97944.07
2019-04-23T20:43:32.447Z,97936.66
2019-04-23T20:48:46.948Z,97940.42
2019-04-23T20:53:43.317Z,97934.70
2019-04-23T20:58:48.193Z,97925.88
2019-04-23T21:03:56.851Z,97924.34
2019-04-23T21:09:22.718Z,97920.58
2019-04-23T21:14:22.665Z,97915.34
2019-04-23T21:19:02.516Z,97899.91
2019-04-23T21:24:11.253Z,97910.49
2019-04-23T21:29:17.619Z,97902.32
2019-04-23T21:34:44.899Z,97895.77
2019-04-23T21:39:53.551Z,97902.02
2019-04-23T21:44:38.562Z,97894.95
2019-04-23T21:50:04.642Z,97894.12
2019-04-23T21:59:55.576Z,97892.50
2019-04-23T22:15:12.631Z,97879.17
2019-04-23T22:25:23.712Z,97869.39
2019-04-23T22:30:31.436Z,97882.71
2019-04-23T22:35:42.293Z,97871.58
2019-04-23T22:40:41.533Z,97869.39
2019-04-23T22:45:52.679Z,97868.03
2019-04-23T22:50:57.475Z,97863.45
2019-04-23T22:56:01.711Z,97862.09
2019-04-23T23:01:19.976Z,97864.80
2019-04-23T23:11:22.798Z,97865.59
2019-04-23T23:16:30.330Z,97864.23
2019-04-23T23:21:43.116Z,97856.11
2019-04-23T23:26:50.001Z,97856.86
2019-04-23T23:37:10.562Z,97838.95
2019-04-23T23:47:12.687Z,97841.09
2019-04-23T23:52:09.553Z,97835.14
2019-04-23T23:57:16.494Z,97838.38
